sensor_id;sensor_type;location;lat;lon;timestamp;pressure;altitude;pressure_sealevel;temperature;humidity
13058;BME280;6595;49.578;11.012;2023-05-21T00:00:23;986.958;;;17.99;65.8
13058;BME280;6595;49.578;11.012;2023-05-21T00:02:24;986.844;;;17.93;65.9
13058;BME280;6595;49.578;11.012;2023-05-21T00:04:23;986.844;;;17.93;65.9
13058;BME280;6595;49.578;11.012;2023-05-21T00:06:24;986.801;;;17.91;65.9
13058;BME280;6595;49.578;11.012;2023-05-21T00:08:23;986.780;;;17.91;65.8
13058;BME280;6595;49.578;11.012;2023-05-21T00:10:23;986.785;;;17.89;66.0
13058;BME280;6595;49.578;11.012;2023-05-21T00:12:24;986.851;;;17.89;66.2
13058;BME280;6595;49.578;11.012;2023-05-21T00:14:23;986.779;;;17.84;66.1
13058;BME280;6595;49.578;11.012;2023-05-21T00:16:24;986.779;;;17.84;66.1
13058;BME280;6595;49.578;11.012;2023-05-21T00:18:23;986.704;;;17.83;66.3
13058;BME280;6595;49.578;11.012;2023-05-21T00:20:23;986.705;;;17.80;66.3
13058;BME280;6595;49.578;11.012;2023-05-21T00:22:24;986.686;;;17.81;66.4
13058;BME280;6595;49.578;11.012;2023-05-21T00:24:23;986.657;;;17.77;66.5
13058;BME280;6595;49.578;11.012;2023-05-21T00:26:23;986.614;;;17.76;66.8
13058;BME280;6595;49.578;11.012;2023-05-21T00:28:24;986.679;;;17.74;66.6
13058;BME280;6595;49.578;11.012;2023-05-21T00:30:24;986.614;;;17.72;66.8
13058;BME280;6595;49.578;11.012;2023-05-21T00:32:24;986.569;;;17.70;66.8
13058;BME280;6595;49.578;11.012;2023-05-21T00:34:23;986.521;;;17.69;66.9
13058;BME280;6595;49.578;11.012;2023-05-21T00:36:23;986.522;;;17.65;67.1
13058;BME280;6595;49.578;11.012;2023-05-21T00:38:24;986.529;;;17.67;66.9
13058;BME280;6595;49.578;11.012;2023-05-21T00:40:23;986.555;;;17.66;67.0
13058;BME280;6595;49.578;11.012;2023-05-21T00:42:24;986.490;;;17.63;67.1
13058;BME280;6595;49.578;11.012;2023-05-21T00:44:23;986.526;;;17.62;67.3
13058;BME280;6595;49.578;11.012;2023-05-21T00:46:24;986.509;;;17.60;67.2
13058;BME280;6595;49.578;11.012;2023-05-21T00:48:23;986.513;;;17.59;67.3
13058;BME280;6595;49.578;11.012;2023-05-21T00:50:24;986.487;;;17.56;67.3
13058;BME280;6595;49.578;11.012;2023-05-21T00:52:24;986.478;;;17.57;67.2
13058;BME280;6595;49.578;11.012;2023-05-21T00:54:23;986.411;;;17.59;67.2
13058;BME280;6595;49.578;11.012;2023-05-21T00:56:24;986.375;;;17.60;67.3
13058;BME280;6595;49.578;11.012;2023-05-21T00:58:23;986.453;;;17.56;67.3
13058;BME280;6595;49.578;11.012;2023-05-21T01:00:24;986.406;;;17.52;67.4
13058;BME280;6595;49.578;11.012;2023-05-21T01:02:23;986.386;;;17.53;67.4
13058;BME280;6595;49.578;11.012;2023-05-21T01:04:23;986.499;;;17.53;67.5
13058;BME280;6595;49.578;11.012;2023-05-21T01:06:24;986.452;;;17.52;67.5
13058;BME280;6595;49.578;11.012;2023-05-21T01:08:24;986.419;;;17.50;67.6
13058;BME280;6595;49.578;11.012;2023-05-21T01:10:24;986.457;;;17.52;67.5
13058;BME280;6595;49.578;11.012;2023-05-21T01:12:24;986.452;;;17.50;67.7
13058;BME280;6595;49.578;11.012;2023-05-21T01:14:23;986.388;;;17.46;67.7
13058;BME280;6595;49.578;11.012;2023-05-21T01:16:24;986.370;;;17.49;67.7
13058;BME280;6595;49.578;11.012;2023-05-21T01:18:24;986.416;;;17.46;67.8
13058;BME280;6595;49.578;11.012;2023-05-21T01:20:24;986.399;;;17.42;67.9
13058;BME280;6595;49.578;11.012;2023-05-21T01:22:23;986.392;;;17.42;67.8
13058;BME280;6595;49.578;11.012;2023-05-21T01:24:24;986.377;;;17.40;68.0
13058;BME280;6595;49.578;11.012;2023-05-21T01:26:23;986.350;;;17.36;68.2
13058;BME280;6595;49.578;11.012;2023-05-21T01:28:24;986.471;;;17.35;68.2
13058;BME280;6595;49.578;11.012;2023-05-21T01:30:24;986.357;;;17.30;68.3
13058;BME280;6595;49.578;11.012;2023-05-21T01:32:30;986.336;;;17.26;68.6
13058;BME280;6595;49.578;11.012;2023-05-21T01:34:27;986.395;;;17.22;68.9
13058;BME280;6595;49.578;11.012;2023-05-21T01:36:24;986.395;;;17.18;69.0
13058;BME280;6595;49.578;11.012;2023-05-21T01:38:26;986.347;;;17.12;69.0
13058;BME280;6595;49.578;11.012;2023-05-21T01:40:28;986.400;;;17.09;69.3
13058;BME280;6595;49.578;11.012;2023-05-21T01:42:24;986.379;;;17.08;69.4
13058;BME280;6595;49.578;11.012;2023-05-21T01:44:25;986.393;;;17.06;69.6
13058;BME280;6595;49.578;11.012;2023-05-21T01:46:25;986.404;;;17.05;69.8
13058;BME280;6595;49.578;11.012;2023-05-21T01:48:24;986.414;;;16.99;69.9
13058;BME280;6595;49.578;11.012;2023-05-21T01:50:24;986.321;;;16.96;70.2
13058;BME280;6595;49.578;11.012;2023-05-21T01:52:23;986.382;;;16.94;70.2
13058;BME280;6595;49.578;11.012;2023-05-21T01:54:24;986.325;;;16.88;70.2
13058;BME280;6595;49.578;11.012;2023-05-21T01:56:23;986.355;;;16.85;70.5
13058;BME280;6595;49.578;11.012;2023-05-21T01:58:23;986.257;;;16.79;70.7
13058;BME280;6595;49.578;11.012;2023-05-21T02:00:25;986.354;;;16.76;70.9
13058;BME280;6595;49.578;11.012;2023-05-21T02:02:23;986.297;;;16.72;71.0
13058;BME280;6595;49.578;11.012;2023-05-21T02:04:23;986.252;;;16.71;71.1
13058;BME280;6595;49.578;11.012;2023-05-21T02:06:24;986.261;;;16.67;71.4
13058;BME280;6595;49.578;11.012;2023-05-21T02:08:23;986.205;;;16.64;71.6
13058;BME280;6595;49.578;11.012;2023-05-21T02:10:24;986.264;;;16.58;71.7
13058;BME280;6595;49.578;11.012;2023-05-21T02:12:23;986.209;;;16.60;71.9
13058;BME280;6595;49.578;11.012;2023-05-21T02:14:24;986.234;;;16.58;72.2
13058;BME280;6595;49.578;11.012;2023-05-21T02:16:24;986.242;;;16.58;72.2
13058;BME280;6595;49.578;11.012;2023-05-21T02:18:23;986.202;;;16.52;72.5
13058;BME280;6595;49.578;11.012;2023-05-21T02:20:24;986.205;;;16.50;72.5
13058;BME280;6595;49.578;11.012;2023-05-21T02:22:23;986.174;;;16.48;72.8
13058;BME280;6595;49.578;11.012;2023-05-21T02:24:24;986.229;;;16.48;73.0
13058;BME280;6595;49.578;11.012;2023-05-21T02:26:23;986.229;;;16.48;73.0
13058;BME280;6595;49.578;11.012;2023-05-21T02:28:23;986.115;;;16.41;73.3
13058;BME280;6595;49.578;11.012;2023-05-21T02:30:24;986.198;;;16.41;73.4
13058;BME280;6595;49.578;11.012;2023-05-21T02:32:23;986.156;;;16.41;73.6
13058;BME280;6595;49.578;11.012;2023-05-21T02:34:24;986.115;;;16.38;73.6
13058;BME280;6595;49.578;11.012;2023-05-21T02:36:23;986.128;;;16.38;73.8
13058;BME280;6595;49.578;11.012;2023-05-21T02:38:24;986.066;;;16.37;73.8
13058;BME280;6595;49.578;11.012;2023-05-21T02:40:23;986.048;;;16.35;73.9
13058;BME280;6595;49.578;11.012;2023-05-21T02:42:23;986.056;;;16.34;74.0
13058;BME280;6595;49.578;11.012;2023-05-21T02:44:24;985.987;;;16.31;74.3
13058;BME280;6595;49.578;11.012;2023-05-21T02:46:23;986.052;;;16.30;74.4
13058;BME280;6595;49.578;11.012;2023-05-21T02:48:24;986.049;;;16.25;74.6
13058;BME280;6595;49.578;11.012;2023-05-21T02:50:23;986.049;;;16.28;74.8
13058;BME280;6595;49.578;11.012;2023-05-21T02:52:23;986.038;;;16.24;74.7
13058;BME280;6595;49.578;11.012;2023-05-21T02:54:24;986.072;;;16.28;74.9
13058;BME280;6595;49.578;11.012;2023-05-21T02:56:23;986.031;;;16.28;74.9
13058;BME280;6595;49.578;11.012;2023-05-21T02:58:24;986.061;;;16.27;75.0
13058;BME280;6595;49.578;11.012;2023-05-21T03:00:23;986.069;;;16.27;75.1
13058;BME280;6595;49.578;11.012;2023-05-21T03:02:24;986.068;;;16.24;75.2
13058;BME280;6595;49.578;11.012;2023-05-21T03:04:24;986.013;;;16.23;75.2
13058;BME280;6595;49.578;11.012;2023-05-21T03:06:23;986.099;;;16.20;75.4
13058;BME280;6595;49.578;11.012;2023-05-21T03:08:24;985.991;;;16.21;75.4
13058;BME280;6595;49.578;11.012;2023-05-21T03:10:23;986.070;;;16.21;75.4
13058;BME280;6595;49.578;11.012;2023-05-21T03:12:23;986.032;;;16.18;75.7
13058;BME280;6595;49.578;11.012;2023-05-21T03:14:24;986.006;;;16.18;75.9
13058;BME280;6595;49.578;11.012;2023-05-21T03:16:23;986.059;;;16.17;75.8
13058;BME280;6595;49.578;11.012;2023-05-21T03:18:23;985.901;;;16.21;75.9
13058;BME280;6595;49.578;11.012;2023-05-21T03:20:24;985.971;;;16.20;75.9
13058;BME280;6595;49.578;11.012;2023-05-21T03:22:23;986.053;;;16.18;76.0
13058;BME280;6595;49.578;11.012;2023-05-21T03:24:24;986.058;;;16.16;76.0
13058;BME280;6595;49.578;11.012;2023-05-21T03:26:23;986.028;;;16.20;76.1
13058;BME280;6595;49.578;11.012;2023-05-21T03:28:23;986.043;;;16.17;76.1
13058;BME280;6595;49.578;11.012;2023-05-21T03:30:24;986.054;;;16.18;76.1
13058;BME280;6595;49.578;11.012;2023-05-21T03:32:23;986.070;;;16.20;76.3
13058;BME280;6595;49.578;11.012;2023-05-21T03:34:24;986.153;;;16.18;76.5
13058;BME280;6595;49.578;11.012;2023-05-21T03:36:23;986.100;;;16.13;76.5
13058;BME280;6595;49.578;11.012;2023-05-21T03:38:23;986.046;;;16.16;76.5
13058;BME280;6595;49.578;11.012;2023-05-21T03:40:24;986.088;;;16.18;76.5
13058;BME280;6595;49.578;11.012;2023-05-21T03:42:23;986.114;;;16.17;76.5
13058;BME280;6595;49.578;11.012;2023-05-21T03:44:24;986.075;;;16.16;76.6
13058;BME280;6595;49.578;11.012;2023-05-21T03:46:23;986.093;;;16.18;76.7
13058;BME280;6595;49.578;11.012;2023-05-21T03:48:23;986.075;;;16.17;76.6
13058;BME280;6595;49.578;11.012;2023-05-21T03:50:24;986.115;;;16.18;76.6
13058;BME280;6595;49.578;11.012;2023-05-21T03:52:23;986.095;;;16.18;76.7
13058;BME280;6595;49.578;11.012;2023-05-21T03:54:24;986.127;;;16.16;76.8
13058;BME280;6595;49.578;11.012;2023-05-21T03:56:23;986.126;;;16.21;76.7
13058;BME280;6595;49.578;11.012;2023-05-21T03:58:24;986.107;;;16.18;76.7
13058;BME280;6595;49.578;11.012;2023-05-21T04:00:24;986.148;;;16.18;76.7
13058;BME280;6595;49.578;11.012;2023-05-21T04:02:24;986.225;;;16.20;76.7
13058;BME280;6595;49.578;11.012;2023-05-21T04:04:24;986.213;;;16.17;76.8
13058;BME280;6595;49.578;11.012;2023-05-21T04:06:24;986.162;;;16.21;76.8
13058;BME280;6595;49.578;11.012;2023-05-21T04:08:23;986.223;;;16.23;76.9
13058;BME280;6595;49.578;11.012;2023-05-21T04:10:23;986.184;;;16.20;77.0
13058;BME280;6595;49.578;11.012;2023-05-21T04:12:23;986.188;;;16.21;76.8
13058;BME280;6595;49.578;11.012;2023-05-21T04:14:23;986.226;;;16.25;76.7
13058;BME280;6595;49.578;11.012;2023-05-21T04:16:24;986.296;;;16.28;76.8
13058;BME280;6595;49.578;11.012;2023-05-21T04:18:23;986.259;;;16.27;76.8
13058;BME280;6595;49.578;11.012;2023-05-21T04:20:23;986.201;;;16.27;76.7
13058;BME280;6595;49.578;11.012;2023-05-21T04:22:24;986.215;;;16.30;76.9
13058;BME280;6595;49.578;11.012;2023-05-21T04:24:23;986.229;;;16.31;77.0
13058;BME280;6595;49.578;11.012;2023-05-21T04:26:24;986.214;;;16.31;76.7
13058;BME280;6595;49.578;11.012;2023-05-21T04:28:23;986.262;;;16.35;76.6
13058;BME280;6595;49.578;11.012;2023-05-21T04:30:24;986.290;;;16.35;76.6
13058;BME280;6595;49.578;11.012;2023-05-21T04:32:23;986.246;;;16.40;76.6
13058;BME280;6595;49.578;11.012;2023-05-21T04:34:23;986.331;;;16.43;76.7
13058;BME280;6595;49.578;11.012;2023-05-21T04:36:24;986.321;;;16.47;76.7
13058;BME280;6595;49.578;11.012;2023-05-21T04:38:23;986.338;;;16.45;76.6
13058;BME280;6595;49.578;11.012;2023-05-21T04:40:24;986.336;;;16.48;76.6
13058;BME280;6595;49.578;11.012;2023-05-21T04:42:23;986.294;;;16.47;76.5
13058;BME280;6595;49.578;11.012;2023-05-21T04:44:23;986.317;;;16.51;76.6
13058;BME280;6595;49.578;11.012;2023-05-21T04:46:24;986.311;;;16.51;76.6
13058;BME280;6595;49.578;11.012;2023-05-21T04:48:24;986.388;;;16.55;76.3
13058;BME280;6595;49.578;11.012;2023-05-21T04:50:24;986.399;;;16.57;76.3
13058;BME280;6595;49.578;11.012;2023-05-21T04:52:23;986.420;;;16.60;76.2
13058;BME280;6595;49.578;11.012;2023-05-21T04:54:23;986.388;;;16.64;75.9
13058;BME280;6595;49.578;11.012;2023-05-21T04:56:24;986.410;;;16.68;75.8
13058;BME280;6595;49.578;11.012;2023-05-21T04:58:23;986.421;;;16.72;75.7
13058;BME280;6595;49.578;11.012;2023-05-21T05:00:24;986.452;;;16.76;75.6
13058;BME280;6595;49.578;11.012;2023-05-21T05:02:23;986.444;;;16.78;75.5
13058;BME280;6595;49.578;11.012;2023-05-21T05:04:23;986.369;;;16.85;75.2
13058;BME280;6595;49.578;11.012;2023-05-21T05:06:24;986.417;;;16.85;75.2
13058;BME280;6595;49.578;11.012;2023-05-21T05:08:23;986.354;;;16.91;74.7
13058;BME280;6595;49.578;11.012;2023-05-21T05:10:23;986.418;;;16.99;74.8
13058;BME280;6595;49.578;11.012;2023-05-21T05:12:24;986.356;;;17.05;74.8
13058;BME280;6595;49.578;11.012;2023-05-21T05:14:23;986.440;;;17.11;74.4
13058;BME280;6595;49.578;11.012;2023-05-21T05:16:24;986.470;;;17.11;74.0
13058;BME280;6595;49.578;11.012;2023-05-21T05:18:23;986.465;;;17.21;74.0
13058;BME280;6595;49.578;11.012;2023-05-21T05:20:24;986.410;;;17.25;73.5
13058;BME280;6595;49.578;11.012;2023-05-21T05:22:24;986.440;;;17.26;73.5
13058;BME280;6595;49.578;11.012;2023-05-21T05:24:23;986.426;;;17.33;73.0
13058;BME280;6595;49.578;11.012;2023-05-21T05:26:24;986.531;;;17.45;73.0
13058;BME280;6595;49.578;11.012;2023-05-21T05:28:23;986.540;;;17.49;72.7
13058;BME280;6595;49.578;11.012;2023-05-21T05:30:24;986.498;;;17.54;71.8
13058;BME280;6595;49.578;11.012;2023-05-21T05:32:24;986.499;;;17.56;71.9
13058;BME280;6595;49.578;11.012;2023-05-21T05:34:23;986.487;;;17.70;71.7
13058;BME280;6595;49.578;11.012;2023-05-21T05:36:24;986.441;;;17.70;71.4
13058;BME280;6595;49.578;11.012;2023-05-21T05:38:24;986.468;;;17.79;71.2
13058;BME280;6595;49.578;11.012;2023-05-21T05:40:23;986.554;;;17.83;71.2
13058;BME280;6595;49.578;11.012;2023-05-21T05:42:24;986.478;;;17.94;70.7
13058;BME280;6595;49.578;11.012;2023-05-21T05:44:23;986.518;;;18.01;70.1
13058;BME280;6595;49.578;11.012;2023-05-21T05:46:24;986.601;;;18.03;70.1
13058;BME280;6595;49.578;11.012;2023-05-21T05:48:23;986.573;;;18.13;69.8
13058;BME280;6595;49.578;11.012;2023-05-21T05:50:23;986.470;;;18.15;69.1
13058;BME280;6595;49.578;11.012;2023-05-21T05:52:24;986.502;;;18.24;68.8
13058;BME280;6595;49.578;11.012;2023-05-21T05:54:23;986.503;;;18.33;68.8
13058;BME280;6595;49.578;11.012;2023-05-21T05:56:23;986.465;;;18.41;68.8
13058;BME280;6595;49.578;11.012;2023-05-21T05:58:24;986.449;;;18.54;68.1
13058;BME280;6595;49.578;11.012;2023-05-21T06:00:23;986.457;;;18.56;67.6
13058;BME280;6595;49.578;11.012;2023-05-21T06:02:23;986.517;;;18.69;66.6
13058;BME280;6595;49.578;11.012;2023-05-21T06:04:24;986.512;;;18.74;66.8
13058;BME280;6595;49.578;11.012;2023-05-21T06:06:23;986.578;;;18.88;66.0
13058;BME280;6595;49.578;11.012;2023-05-21T06:08:23;986.533;;;18.95;65.7
13058;BME280;6595;49.578;11.012;2023-05-21T06:10:24;986.488;;;19.10;65.7
13058;BME280;6595;49.578;11.012;2023-05-21T06:12:23;986.471;;;19.23;65.3
13058;BME280;6595;49.578;11.012;2023-05-21T06:14:24;986.436;;;19.26;64.7
13058;BME280;6595;49.578;11.012;2023-05-21T06:16:23;986.402;;;19.29;63.8
13058;BME280;6595;49.578;11.012;2023-05-21T06:18:24;986.516;;;19.29;64.1
13058;BME280;6595;49.578;11.012;2023-05-21T06:20:24;986.449;;;19.25;64.0
13058;BME280;6595;49.578;11.012;2023-05-21T06:22:23;986.513;;;19.33;63.5
13058;BME280;6595;49.578;11.012;2023-05-21T06:24:24;986.596;;;19.45;63.1
13058;BME280;6595;49.578;11.012;2023-05-21T06:26:23;986.542;;;19.40;63.5
13058;BME280;6595;49.578;11.012;2023-05-21T06:28:24;986.575;;;19.36;63.3
13058;BME280;6595;49.578;11.012;2023-05-21T06:30:23;986.505;;;19.40;63.2
13058;BME280;6595;49.578;11.012;2023-05-21T06:32:23;986.426;;;19.56;62.7
13058;BME280;6595;49.578;11.012;2023-05-21T06:34:24;986.478;;;19.64;62.7
13058;BME280;6595;49.578;11.012;2023-05-21T06:36:24;986.526;;;19.74;62.4
13058;BME280;6595;49.578;11.012;2023-05-21T06:38:23;986.552;;;19.76;61.0
13058;BME280;6595;49.578;11.012;2023-05-21T06:40:24;986.459;;;19.72;61.4
13058;BME280;6595;49.578;11.012;2023-05-21T06:42:23;986.424;;;19.78;60.9
13058;BME280;6595;49.578;11.012;2023-05-21T06:44:24;986.457;;;19.88;61.1
13058;BME280;6595;49.578;11.012;2023-05-21T06:46:23;986.500;;;19.87;61.1
13058;BME280;6595;49.578;11.012;2023-05-21T06:48:24;986.507;;;20.01;60.9
13058;BME280;6595;49.578;11.012;2023-05-21T06:50:23;986.562;;;20.04;60.5
13058;BME280;6595;49.578;11.012;2023-05-21T06:52:24;986.562;;;20.08;60.0
13058;BME280;6595;49.578;11.012;2023-05-21T06:54:24;986.573;;;20.16;60.5
13058;BME280;6595;49.578;11.012;2023-05-21T06:56:23;986.567;;;20.21;60.0
13058;BME280;6595;49.578;11.012;2023-05-21T06:58:24;986.467;;;20.27;59.4
13058;BME280;6595;49.578;11.012;2023-05-21T07:00:24;986.445;;;20.32;59.5
13058;BME280;6595;49.578;11.012;2023-05-21T07:02:24;986.584;;;20.51;59.7
13058;BME280;6595;49.578;11.012;2023-05-21T07:04:24;986.468;;;20.58;59.2
13058;BME280;6595;49.578;11.012;2023-05-21T07:06:23;986.438;;;20.74;58.7
13058;BME280;6595;49.578;11.012;2023-05-21T07:08:23;986.414;;;20.65;58.7
13058;BME280;6595;49.578;11.012;2023-05-21T07:10:24;986.478;;;20.79;58.1
13058;BME280;6595;49.578;11.012;2023-05-21T07:12:23;986.585;;;20.78;57.6
13058;BME280;6595;49.578;11.012;2023-05-21T07:14:24;986.530;;;20.81;57.2
13058;BME280;6595;49.578;11.012;2023-05-21T07:16:23;986.531;;;20.85;57.4
13058;BME280;6595;49.578;11.012;2023-05-21T07:18:24;986.591;;;20.91;57.5
13058;BME280;6595;49.578;11.012;2023-05-21T07:20:23;986.639;;;20.93;57.4
13058;BME280;6595;49.578;11.012;2023-05-21T07:22:23;986.643;;;20.91;57.3
13058;BME280;6595;49.578;11.012;2023-05-21T07:24:24;986.638;;;20.85;57.3
13058;BME280;6595;49.578;11.012;2023-05-21T07:26:23;986.673;;;20.83;57.9
13058;BME280;6595;49.578;11.012;2023-05-21T07:28:24;986.626;;;20.82;57.5
13058;BME280;6595;49.578;11.012;2023-05-21T07:30:23;986.685;;;20.85;57.3
13058;BME280;6595;49.578;11.012;2023-05-21T07:32:23;986.671;;;20.76;58.2
13058;BME280;6595;49.578;11.012;2023-05-21T07:34:24;986.653;;;20.78;57.7
13058;BME280;6595;49.578;11.012;2023-05-21T07:36:23;986.609;;;20.79;57.4
13058;BME280;6595;49.578;11.012;2023-05-21T07:38:24;986.623;;;20.83;57.5
13058;BME280;6595;49.578;11.012;2023-05-21T07:40:23;986.649;;;20.81;57.4
13058;BME280;6595;49.578;11.012;2023-05-21T07:42:24;986.602;;;20.85;57.8
13058;BME280;6595;49.578;11.012;2023-05-21T07:44:23;986.685;;;20.98;57.8
13058;BME280;6595;49.578;11.012;2023-05-21T07:46:23;986.589;;;21.03;57.2
13058;BME280;6595;49.578;11.012;2023-05-21T07:48:24;986.682;;;21.15;57.2
13058;BME280;6595;49.578;11.012;2023-05-21T07:50:24;986.622;;;21.10;56.4
13058;BME280;6595;49.578;11.012;2023-05-21T07:52:24;986.613;;;21.19;56.4
13058;BME280;6595;49.578;11.012;2023-05-21T07:54:24;986.656;;;21.33;56.3
13058;BME280;6595;49.578;11.012;2023-05-21T07:56:23;986.615;;;21.35;56.6
13058;BME280;6595;49.578;11.012;2023-05-21T07:58:24;986.598;;;21.39;55.5
13058;BME280;6595;49.578;11.012;2023-05-21T08:00:23;986.662;;;21.36;55.4
13058;BME280;6595;49.578;11.012;2023-05-21T08:02:23;986.676;;;21.47;55.7
13058;BME280;6595;49.578;11.012;2023-05-21T08:04:24;986.592;;;21.57;56.0
13058;BME280;6595;49.578;11.012;2023-05-21T08:06:24;986.612;;;21.53;54.7
13058;BME280;6595;49.578;11.012;2023-05-21T08:08:24;986.633;;;21.63;54.7
13058;BME280;6595;49.578;11.012;2023-05-21T08:10:24;986.692;;;21.46;54.5
13058;BME280;6595;49.578;11.012;2023-05-21T08:12:23;986.676;;;21.54;54.6
13058;BME280;6595;49.578;11.012;2023-05-21T08:14:24;986.686;;;21.54;54.4
13058;BME280;6595;49.578;11.012;2023-05-21T08:16:23;986.754;;;21.50;54.7
13058;BME280;6595;49.578;11.012;2023-05-21T08:18:23;986.754;;;21.61;54.4
13058;BME280;6595;49.578;11.012;2023-05-21T08:20:24;986.728;;;21.67;54.0
13058;BME280;6595;49.578;11.012;2023-05-21T08:22:23;986.665;;;21.68;54.1
13058;BME280;6595;49.578;11.012;2023-05-21T08:24:24;986.665;;;21.67;53.6
13058;BME280;6595;49.578;11.012;2023-05-21T08:26:23;986.699;;;21.64;54.1
13058;BME280;6595;49.578;11.012;2023-05-21T08:28:23;986.701;;;21.73;54.1
13058;BME280;6595;49.578;11.012;2023-05-21T08:30:24;986.604;;;21.84;54.5
13058;BME280;6595;49.578;11.012;2023-05-21T08:32:23;986.631;;;21.91;53.9
13058;BME280;6595;49.578;11.012;2023-05-21T08:34:23;986.679;;;22.01;54.1
13058;BME280;6595;49.578;11.012;2023-05-21T08:36:24;986.703;;;22.15;54.0
13058;BME280;6595;49.578;11.012;2023-05-21T08:38:23;986.695;;;22.10;54.2
13058;BME280;6595;49.578;11.012;2023-05-21T08:40:23;986.694;;;22.14;53.8
13058;BME280;6595;49.578;11.012;2023-05-21T08:42:31;986.666;;;22.14;53.3
13058;BME280;6595;49.578;11.012;2023-05-21T08:44:24;986.647;;;22.10;54.2
13058;BME280;6595;49.578;11.012;2023-05-21T08:46:24;986.604;;;22.18;54.3
13058;BME280;6595;49.578;11.012;2023-05-21T08:48:23;986.645;;;22.15;53.8
13058;BME280;6595;49.578;11.012;2023-05-21T08:50:26;986.690;;;22.14;53.7
13058;BME280;6595;49.578;11.012;2023-05-21T08:52:24;986.634;;;22.25;53.6
13058;BME280;6595;49.578;11.012;2023-05-21T08:54:23;986.743;;;22.24;53.4
13058;BME280;6595;49.578;11.012;2023-05-21T08:56:24;986.692;;;22.30;53.5
13058;BME280;6595;49.578;11.012;2023-05-21T08:58:23;986.706;;;22.35;52.6
13058;BME280;6595;49.578;11.012;2023-05-21T09:00:24;986.636;;;22.40;52.7
13058;BME280;6595;49.578;11.012;2023-05-21T09:02:24;986.649;;;22.45;52.7
13058;BME280;6595;49.578;11.012;2023-05-21T09:04:23;986.646;;;22.42;53.0
13058;BME280;6595;49.578;11.012;2023-05-21T09:06:25;986.653;;;22.50;53.0
13058;BME280;6595;49.578;11.012;2023-05-21T09:08:28;986.675;;;22.58;53.1
13058;BME280;6595;49.578;11.012;2023-05-21T09:10:28;986.609;;;22.48;52.9
13058;BME280;6595;49.578;11.012;2023-05-21T09:12:24;986.643;;;22.62;53.1
13058;BME280;6595;49.578;11.012;2023-05-21T09:14:23;986.542;;;22.71;52.9
13058;BME280;6595;49.578;11.012;2023-05-21T09:16:24;986.608;;;22.84;52.2
13058;BME280;6595;49.578;11.012;2023-05-21T09:18:23;986.732;;;22.95;52.0
13058;BME280;6595;49.578;11.012;2023-05-21T09:20:24;986.564;;;22.95;51.5
13058;BME280;6595;49.578;11.012;2023-05-21T09:22:24;986.524;;;22.99;51.9
13058;BME280;6595;49.578;11.012;2023-05-21T09:24:23;986.647;;;23.12;51.6
13058;BME280;6595;49.578;11.012;2023-05-21T09:26:23;986.675;;;23.23;51.4
13058;BME280;6595;49.578;11.012;2023-05-21T09:28:24;986.711;;;23.33;51.2
13058;BME280;6595;49.578;11.012;2023-05-21T09:30:23;986.674;;;23.36;50.2
13058;BME280;6595;49.578;11.012;2023-05-21T09:32:24;986.729;;;23.53;48.9
13058;BME280;6595;49.578;11.012;2023-05-21T09:34:24;986.767;;;23.70;48.0
13058;BME280;6595;49.578;11.012;2023-05-21T09:36:23;986.688;;;23.87;47.8
13058;BME280;6595;49.578;11.012;2023-05-21T09:38:24;986.683;;;23.83;47.2
13058;BME280;6595;49.578;11.012;2023-05-21T09:40:23;986.807;;;23.79;47.2
13058;BME280;6595;49.578;11.012;2023-05-21T09:42:23;986.792;;;23.96;46.0
13058;BME280;6595;49.578;11.012;2023-05-21T09:44:24;986.666;;;24.05;45.9
13058;BME280;6595;49.578;11.012;2023-05-21T09:46:25;986.708;;;24.00;46.2
13058;BME280;6595;49.578;11.012;2023-05-21T09:48:33;986.806;;;24.08;46.2
13058;BME280;6595;49.578;11.012;2023-05-21T09:50:25;986.749;;;24.15;46.3
13058;BME280;6595;49.578;11.012;2023-05-21T09:52:23;986.745;;;24.34;45.6
13058;BME280;6595;49.578;11.012;2023-05-21T09:54:24;986.818;;;24.45;46.5
13058;BME280;6595;49.578;11.012;2023-05-21T09:56:24;986.772;;;24.48;47.0
13058;BME280;6595;49.578;11.012;2023-05-21T09:58:24;986.762;;;24.50;46.8
13058;BME280;6595;49.578;11.012;2023-05-21T10:00:26;986.800;;;24.69;46.7
13058;BME280;6595;49.578;11.012;2023-05-21T10:02:24;986.732;;;24.78;46.8
13058;BME280;6595;49.578;11.012;2023-05-21T10:04:24;986.827;;;24.83;47.0
13058;BME280;6595;49.578;11.012;2023-05-21T10:06:25;986.861;;;24.72;46.6
13058;BME280;6595;49.578;11.012;2023-05-21T10:08:26;986.833;;;24.55;46.4
13058;BME280;6595;49.578;11.012;2023-05-21T10:10:25;986.750;;;24.38;47.3
13058;BME280;6595;49.578;11.012;2023-05-21T10:12:24;986.822;;;24.57;46.7
13058;BME280;6595;49.578;11.012;2023-05-21T10:14:24;986.781;;;24.47;47.9
13058;BME280;6595;49.578;11.012;2023-05-21T10:16:24;986.869;;;24.37;47.8
13058;BME280;6595;49.578;11.012;2023-05-21T10:18:23;986.850;;;24.50;47.3
13058;BME280;6595;49.578;11.012;2023-05-21T10:20:24;986.763;;;24.41;47.4
13058;BME280;6595;49.578;11.012;2023-05-21T10:22:24;986.762;;;24.30;48.2
13058;BME280;6595;49.578;11.012;2023-05-21T10:24:24;986.765;;;24.39;48.5
13058;BME280;6595;49.578;11.012;2023-05-21T10:26:24;986.747;;;24.50;47.9
13058;BME280;6595;49.578;11.012;2023-05-21T10:28:24;986.742;;;24.37;49.1
13058;BME280;6595;49.578;11.012;2023-05-21T10:30:23;986.768;;;24.58;48.3
13058;BME280;6595;49.578;11.012;2023-05-21T10:32:25;986.754;;;24.62;47.8
13058;BME280;6595;49.578;11.012;2023-05-21T10:34:23;986.696;;;24.71;47.8
13058;BME280;6595;49.578;11.012;2023-05-21T10:36:23;986.679;;;24.62;48.3
13058;BME280;6595;49.578;11.012;2023-05-21T10:38:24;986.696;;;24.61;48.8
13058;BME280;6595;49.578;11.012;2023-05-21T10:40:23;986.666;;;24.65;48.3
13058;BME280;6595;49.578;11.012;2023-05-21T10:42:44;986.666;;;24.65;48.3
13058;BME280;6595;49.578;11.012;2023-05-21T10:44:32;986.632;;;24.99;46.7
13058;BME280;6595;49.578;11.012;2023-05-21T10:46:34;986.632;;;24.99;46.7
13058;BME280;6595;49.578;11.012;2023-05-21T10:48:34;986.611;;;25.13;48.1
13058;BME280;6595;49.578;11.012;2023-05-21T10:50:37;986.573;;;25.36;47.2
13058;BME280;6595;49.578;11.012;2023-05-21T10:52:36;986.566;;;25.52;46.3